Time;durP1;ratioP1;P1;durP2;ratioP2;P2;SDS_P1;SDS_P2;PMS_P1;PMS_P2;Temp;Humidity;BMP_temperature;BMP_pressure;BME280_temperature;BME280_humidity;BME280_pressure;Samples;Min_cycle;Max_cycle;Signal;HPM_P1;HPM_P2
2021/01/08 00:01:20;;;;;;;0.40;0.40;;;0.50;99.90;;;;;;4834803;29;20618;-87
2021/01/08 00:03:54;;;;;;;0.40;0.40;;;0.50;99.90;;;;;;4838265;29;20442;-88
2021/01/08 00:06:21;;;;;;;0.40;0.40;;;0.50;99.90;;;;;;4838225;29;20211;-88
2021/01/08 00:08:47;;;;;;;0.40;0.40;;;0.50;99.90;;;;;;4836566;29;20220;-88
2021/01/08 00:11:19;;;;;;;0.40;0.40;;;0.50;99.90;;;;;;4837826;29;20578;-88
2021/01/08 00:13:46;;;;;;;0.40;0.40;;;0.20;99.90;;;;;;4838353;29;20212;-88
2021/01/08 00:16:12;;;;;;;0.40;0.40;;;0.50;99.90;;;;;;4838599;29;20242;-88
2021/01/08 00:18:48;;;;;;;0.40;0.40;;;0.50;99.90;;;;;;4831721;29;20200;-88
2021/01/08 00:21:14;;;;;;;0.47;0.47;;;0.30;99.90;;;;;;4831502;29;20267;-88
2021/01/08 00:23:47;;;;;;;0.40;0.40;;;0.50;99.90;;;;;;4838065;29;20238;-88
2021/01/08 00:26:13;;;;;;;0.40;0.40;;;0.30;99.90;;;;;;4835361;29;20212;-88
2021/01/08 00:28:42;;;;;;;0.40;0.40;;;0.50;99.90;;;;;;4836815;29;20212;-88
2021/01/08 00:31:08;;;;;;;0.45;0.45;;;0.50;99.90;;;;;;4837809;29;20210;-88
2021/01/08 00:33:45;;;;;;;0.40;0.40;;;0.50;99.90;;;;;;4837860;29;20216;-88
2021/01/08 00:36:18;;;;;;;0.50;0.50;;;0.50;99.90;;;;;;4837997;29;20207;-88
2021/01/08 00:38:45;;;;;;;0.40;0.40;;;0.50;99.90;;;;;;4837975;29;20663;-87
2021/01/08 00:41:26;;;;;;;0.40;0.40;;;0.50;99.90;;;;;;4837409;29;20227;-88
2021/01/08 00:44:04;;;;;;;0.40;0.40;;;0.30;99.90;;;;;;4837971;29;20218;-87
2021/01/08 00:46:49;;;;;;;0.50;0.50;;;0.50;99.90;;;;;;4837989;29;20675;-88
2021/01/08 00:49:42;;;;;;;0.40;0.40;;;0.50;99.90;;;;;;4838141;29;20709;-88
2021/01/08 00:52:54;;;;;;;0.40;0.40;;;0.80;99.90;;;;;;4803176;29;20294;-87
2021/01/08 00:55:25;;;;;;;0.40;0.40;;;0.90;99.90;;;;;;4833690;29;20238;-88
2021/01/08 00:57:52;;;;;;;0.40;0.40;;;;;;;;;;4837810;29;20279;-88
2021/01/08 01:00:21;;;;;;;0.40;0.40;;;0.50;99.90;;;;;;4837731;29;20207;-88
2021/01/08 01:02:49;;;;;;;0.40;0.40;;;;;;;;;;4837452;29;20222;-88
2021/01/08 01:05:16;;;;;;;0.40;0.40;;;;;;;;;;4837306;29;20424;-88
2021/01/08 01:07:45;;;;;;;0.50;0.50;;;0.50;99.90;;;;;;4837834;29;20215;-88
2021/01/08 01:10:12;;;;;;;0.40;0.40;;;0.60;99.90;;;;;;4836902;29;20243;-88
2021/01/08 01:12:39;;;;;;;0.40;0.40;;;0.50;99.90;;;;;;4837544;29;20212;-87
2021/01/08 01:15:06;;;;;;;0.40;0.40;;;0.00;99.90;;;;;;4837695;29;20364;-88
2021/01/08 01:17:33;;;;;;;0.40;0.40;;;;;;;;;;4837596;29;20211;-87
2021/01/08 01:20:05;;;;;;;0.45;0.45;;;0.30;99.90;;;;;;4837141;29;20423;-87
2021/01/08 01:22:37;;;;;;;0.45;0.45;;;-0.10;99.90;;;;;;4836838;29;20234;-88
2021/01/08 01:25:16;;;;;;;0.40;0.40;;;0.20;99.90;;;;;;4837418;29;20212;-87
2021/01/08 01:27:59;;;;;;;0.40;0.40;;;0.60;99.90;;;;;;4837191;29;20307;-87
2021/01/08 01:30:25;;;;;;;0.40;0.40;;;;;;;;;;4820977;29;20231;-88
2021/01/08 01:32:52;;;;;;;0.40;0.40;;;;;;;;;;4837439;29;20735;-88
2021/01/08 01:35:24;;;;;;;0.40;0.40;;;0.50;99.90;;;;;;4837177;29;20616;-88
2021/01/08 01:37:51;;;;;;;0.40;0.40;;;0.50;99.90;;;;;;4837311;29;20615;-88
2021/01/08 01:40:25;;;;;;;0.40;0.40;;;0.50;99.90;;;;;;4837556;29;20207;-87
2021/01/08 01:42:53;;;;;;;0.40;0.40;;;;;;;;;;4837355;29;20591;-87
2021/01/08 01:45:20;;;;;;;0.40;0.40;;;0.50;99.90;;;;;;4837265;29;20610;-88
2021/01/08 01:47:47;;;;;;;0.40;0.40;;;;;;;;;;4837059;29;20207;-88
2021/01/08 01:50:13;;;;;;;0.50;0.50;;;;;;;;;;4837412;29;20251;-87
2021/01/08 01:52:44;;;;;;;0.40;0.40;;;0.50;99.90;;;;;;4836812;29;20230;-88
2021/01/08 01:55:13;;;;;;;0.40;0.40;;;0.70;99.90;;;;;;4836993;29;20211;-88
2021/01/08 01:57:50;;;;;;;0.40;0.40;;;0.50;99.90;;;;;;4837017;29;20219;-87
2021/01/08 02:00:17;;;;;;;0.40;0.40;;;-0.30;99.90;;;;;;4837035;29;20223;-88
2021/01/08 02:03:04;;;;;;;0.40;0.40;;;0.50;99.90;;;;;;4836493;29;20240;-87
2021/01/08 02:05:30;;;;;;;0.40;0.40;;;;;;;;;;4838933;29;20254;-88
2021/01/08 02:08:00;;;;;;;0.40;0.40;;;0.50;99.90;;;;;;4840568;29;20215;-88
2021/01/08 02:10:31;;;;;;;0.40;0.40;;;0.60;99.90;;;;;;4841184;29;20684;-88
2021/01/08 02:13:01;;;;;;;0.43;0.43;;;0.50;99.90;;;;;;4840057;29;20230;-88
2021/01/08 02:15:35;;;;;;;0.40;0.40;;;1.50;99.90;;;;;;4840704;29;20208;-88
2021/01/08 02:18:05;;;;;;;0.40;0.40;;;0.50;99.90;;;;;;4840846;29;20222;-88
2021/01/08 02:20:38;;;;;;;0.40;0.40;;;0.50;99.90;;;;;;4839689;29;20218;-88
2021/01/08 02:23:12;;;;;;;0.40;0.40;;;0.50;99.90;;;;;;4840427;29;20322;-89
2021/01/08 02:25:41;;;;;;;0.40;0.40;;;-0.80;99.90;;;;;;4840327;29;20230;-87
2021/01/08 02:28:22;;;;;;;0.40;0.40;;;0.60;99.90;;;;;;4840309;29;20622;-88
2021/01/08 02:30:49;;;;;;;0.40;0.40;;;0.50;99.90;;;;;;4840083;29;20247;-88
2021/01/08 02:33:17;;;;;;;0.40;0.40;;;0.50;99.90;;;;;;4839754;29;20215;-88
2021/01/08 02:35:48;;;;;;;0.40;0.40;;;0.60;99.90;;;;;;4839797;29;20302;-88
2021/01/08 02:38:17;;;;;;;0.40;0.40;;;0.60;99.90;;;;;;4839494;29;20294;-87
2021/01/08 02:40:49;;;;;;;0.40;0.40;;;0.50;99.90;;;;;;4839860;29;20207;-88
2021/01/08 02:43:21;;;;;;;0.40;0.40;;;0.50;99.90;;;;;;4839673;29;20377;-87
2021/01/08 02:45:47;;;;;;;0.40;0.40;;;0.40;99.90;;;;;;4840251;29;20222;-88
2021/01/08 02:48:14;;;;;;;0.40;0.40;;;0.30;99.90;;;;;;4839883;29;20575;-87
2021/01/08 02:50:41;;;;;;;0.40;0.40;;;0.40;99.90;;;;;;4839466;29;20231;-88
2021/01/08 02:53:12;;;;;;;0.40;0.40;;;0.40;99.90;;;;;;4839606;29;20216;-90
2021/01/08 02:55:42;;;;;;;0.40;0.40;;;0.40;99.90;;;;;;4840047;29;20676;-88
2021/01/08 02:58:16;;;;;;;0.40;0.40;;;0.50;99.90;;;;;;4839389;29;20208;-88
2021/01/08 03:00:43;;;;;;;0.40;0.40;;;0.20;99.90;;;;;;4839878;29;20261;-88
2021/01/08 03:03:11;;;;;;;0.40;0.40;;;0.40;99.90;;;;;;4839128;29;20215;-89
2021/01/08 03:05:47;;;;;;;0.40;0.40;;;0.40;99.90;;;;;;4839840;29;20208;-88
2021/01/08 03:08:28;;;;;;;0.40;0.40;;;0.40;99.90;;;;;;4839452;29;20512;-88
2021/01/08 03:10:55;;;;;;;0.43;0.43;;;;;;;;;;4839458;29;20235;-88
2021/01/08 03:13:23;;;;;;;0.40;0.40;;;0.40;99.90;;;;;;4838832;29;20215;-89
2021/01/08 03:15:50;;;;;;;0.43;0.43;;;;;;;;;;4839410;29;20308;-88
2021/01/08 03:18:25;;;;;;;0.40;0.40;;;0.40;99.90;;;;;;4838623;29;20216;-88
2021/01/08 03:20:51;;;;;;;0.40;0.40;;;;;;;;;;4839584;29;20207;-89
2021/01/08 03:23:17;;;;;;;0.40;0.40;;;0.40;99.90;;;;;;4838675;29;20235;-88
2021/01/08 03:25:46;;;;;;;0.40;0.40;;;;;;;;;;4839119;29;20208;-89
2021/01/08 03:28:12;;;;;;;0.40;0.40;;;0.40;99.90;;;;;;4839293;29;20241;-89
2021/01/08 03:30:59;;;;;;;0.43;0.43;;;0.10;99.90;;;;;;4838843;29;20239;-88
2021/01/08 03:33:31;;;;;;;0.50;0.50;;;;;;;;;;4823051;29;20663;-88
2021/01/08 03:35:58;;;;;;;0.40;0.40;;;;;;;;;;4839169;29;20216;-88
2021/01/08 03:38:26;;;;;;;0.40;0.40;;;-0.20;99.90;;;;;;4839141;29;20216;-88
2021/01/08 03:40:52;;;;;;;0.40;0.40;;;0.60;99.90;;;;;;4838848;29;20528;-87
2021/01/08 03:43:24;;;;;;;0.40;0.40;;;1.10;99.90;;;;;;4838761;29;20303;-88
2021/01/08 03:45:51;;;;;;;0.40;0.40;;;;;;;;;;4839348;29;20641;-88
2021/01/08 03:48:29;;;;;;;0.50;0.50;;;0.30;99.90;;;;;;4839227;29;20299;-88
2021/01/08 03:51:03;;;;;;;0.40;0.40;;;2.20;99.90;;;;;;4839028;29;20231;-88
2021/01/08 03:53:41;;;;;;;;;;;;;;;;;;;;;
2021/01/08 03:56:13;;;;;;;0.50;0.50;;;;;;;;;;4833367;29;20710;-88
2021/01/08 03:58:40;;;;;;;0.40;0.40;;;;;;;;;;4835944;29;20329;-89
2021/01/08 04:01:06;;;;;;;0.40;0.40;;;;;;;;;;4842074;29;20204;-90
2021/01/08 04:03:33;;;;;;;0.40;0.40;;;0.40;99.90;;;;;;4856907;29;20214;-89
2021/01/08 04:06:00;;;;;;;0.40;0.40;;;;;;;;;;4845040;29;20212;-90
2021/01/08 04:08:26;;;;;;;0.50;0.50;;;;;;;;;;4838594;29;20218;-89
2021/01/08 04:10:54;;;;;;;0.50;0.50;;;2.30;99.90;;;;;;4837941;29;20239;-88
2021/01/08 04:13:21;;;;;;;0.40;0.40;;;;;;;;;;4838632;29;20675;-88
2021/01/08 04:15:47;;;;;;;0.50;0.50;;;;;;;;;;4838518;29;20212;-88
2021/01/08 04:18:14;;;;;;;0.50;0.50;;;;;;;;;;4850335;29;20207;-88
2021/01/08 04:20:41;;;;;;;0.50;0.50;;;0.40;99.90;;;;;;4837416;29;20220;-86
2021/01/08 04:23:07;;;;;;;0.50;0.50;;;;;;;;;;4838068;29;20238;-86
2021/01/08 04:25:34;;;;;;;0.50;0.50;;;;;;;;;;4838212;29;20709;-86
2021/01/08 04:28:00;;;;;;;0.50;0.50;;;0.40;99.90;;;;;;4838295;29;20211;-86
2021/01/08 04:30:28;;;;;;;0.50;0.50;;;0.40;99.90;;;;;;4839275;29;20231;-86
2021/01/08 04:32:55;;;;;;;0.50;0.50;;;;;;;;;;4840059;29;20228;-86
2021/01/08 04:35:21;;;;;;;0.50;0.50;;;0.40;99.90;;;;;;4841396;29;20234;-86
2021/01/08 04:37:49;;;;;;;0.50;0.50;;;0.40;99.90;;;;;;4838034;29;20211;-85
2021/01/08 04:40:15;;;;;;;0.50;0.50;;;-0.40;99.90;;;;;;4845816;29;20260;-86
2021/01/08 04:42:42;;;;;;;0.50;0.50;;;;;;;;;;4838401;29;20212;-85
2021/01/08 04:45:09;;;;;;;0.50;0.50;;;0.40;99.90;;;;;;4838054;29;20421;-86
2021/01/08 04:47:37;;;;;;;0.50;0.50;;;0.40;99.90;;;;;;4838056;29;20581;-86
2021/01/08 04:50:05;;;;;;;0.50;0.50;;;0.10;99.90;;;;;;4837728;29;20224;-86
2021/01/08 04:52:33;;;;;;;0.50;0.50;;;0.40;99.90;;;;;;4837971;29;20291;-86
2021/01/08 04:55:01;;;;;;;0.50;0.50;;;0.40;99.90;;;;;;4838463;29;20220;-86
2021/01/08 04:57:29;;;;;;;0.40;0.40;;;0.50;99.90;;;;;;4838243;29;20211;-86
2021/01/08 04:59:56;;;;;;;0.50;0.50;;;;;;;;;;4837775;29;20212;-86
2021/01/08 05:02:22;;;;;;;0.50;0.50;;;0.40;99.90;;;;;;4838155;29;20920;-86
2021/01/08 05:04:49;;;;;;;0.50;0.50;;;;;;;;;;4838090;29;20689;-86
2021/01/08 05:07:16;;;;;;;0.50;0.50;;;;;;;;;;4837657;29;20727;-85
2021/01/08 05:09:42;;;;;;;0.50;0.50;;;0.40;99.90;;;;;;4837099;29;20235;-85
2021/01/08 05:12:09;;;;;;;0.40;0.40;;;0.40;99.90;;;;;;4837891;29;20627;-86
2021/01/08 05:14:37;;;;;;;0.47;0.47;;;0.40;99.90;;;;;;4838412;29;20211;-86
2021/01/08 05:17:05;;;;;;;0.50;0.50;;;;;;;;;;4838239;29;20223;-86
2021/01/08 05:19:31;;;;;;;0.40;0.40;;;;;;;;;;4837856;29;20207;-87
2021/01/08 05:21:58;;;;;;;0.50;0.50;;;;;;;;;;4837265;29;20474;-85
2021/01/08 05:24:25;;;;;;;0.50;0.50;;;;;;;;;;4837374;29;20280;-86
2021/01/08 05:26:51;;;;;;;0.50;0.50;;;;;;;;;;4837481;29;20264;-86
2021/01/08 05:29:19;;;;;;;0.40;0.40;;;0.80;99.90;;;;;;4837860;29;20631;-86
2021/01/08 05:31:47;;;;;;;0.50;0.50;;;0.40;99.90;;;;;;4837949;29;20687;-86
2021/01/08 05:34:14;;;;;;;0.50;0.50;;;;;;;;;;4837497;29;20235;-85
2021/01/08 05:36:46;;;;;;;0.50;0.50;;;0.40;99.90;;;;;;4837831;29;20215;-88
2021/01/08 05:39:12;;;;;;;0.50;0.50;;;0.20;99.90;;;;;;4843222;29;20219;-84
2021/01/08 05:44:35;;;;;;;0.40;0.40;;;0.30;99.90;;;;;;4845868;29;20208;-85
2021/01/08 05:47:16;;;;;;;0.50;0.50;;;0.30;99.90;;;;;;4840593;29;20208;-85
2021/01/08 05:49:46;;;;;;;0.40;0.40;;;0.30;99.90;;;;;;4840953;29;20227;-86
2021/01/08 05:52:15;;;;;;;0.40;0.40;;;0.30;99.90;;;;;;4841377;29;20215;-83
2021/01/08 05:54:41;;;;;;;0.45;0.45;;;0.30;99.90;;;;;;4841260;29;20207;-86
2021/01/08 05:57:07;;;;;;;0.50;0.50;;;0.30;99.90;;;;;;4840847;29;20638;-86
2021/01/08 05:59:33;;;;;;;0.40;0.40;;;0.30;99.90;;;;;;4840209;29;20569;-82
2021/01/08 06:02:01;;;;;;;0.40;0.40;;;0.30;99.90;;;;;;4841029;29;20212;-81
2021/01/08 06:04:30;;;;;;;0.40;0.40;;;0.30;99.90;;;;;;4840648;29;20204;-83
2021/01/08 06:06:57;;;;;;;0.47;0.47;;;0.30;99.90;;;;;;4841126;29;20268;-82
2021/01/08 06:09:24;;;;;;;0.40;0.40;;;0.30;99.90;;;;;;4839132;29;20626;-82
2021/01/08 06:11:52;;;;;;;0.43;0.43;;;0.30;99.90;;;;;;4841448;29;20211;-82
2021/01/08 06:14:19;;;;;;;0.50;0.50;;;0.20;99.90;;;;;;4839518;29;20222;-82
2021/01/08 06:16:47;;;;;;;0.50;0.50;;;0.30;99.90;;;;;;4839908;29;20275;-82
2021/01/08 06:19:15;;;;;;;0.40;0.40;;;0.30;99.90;;;;;;4834116;29;20272;-82
2021/01/08 06:21:43;;;;;;;0.40;0.40;;;0.30;99.90;;;;;;4820981;29;20212;-82
2021/01/08 06:24:12;;;;;;;0.40;0.40;;;0.30;99.90;;;;;;4822953;29;20308;-82
2021/01/08 06:26:39;;;;;;;0.40;0.40;;;0.30;99.90;;;;;;4838656;29;20212;-83
2021/01/08 06:29:16;;;;;;;0.40;0.40;;;0.30;99.90;;;;;;4838547;29;20215;-82
2021/01/08 06:31:47;;;;;;;0.40;0.40;;;0.30;99.90;;;;;;4838674;29;20219;-82
2021/01/08 06:34:24;;;;;;;0.40;0.40;;;0.30;99.90;;;;;;4838732;29;20212;-82
2021/01/08 06:37:04;;;;;;;0.40;0.40;;;0.30;99.90;;;;;;4840547;29;20211;-83
2021/01/08 06:39:34;;;;;;;0.40;0.40;;;0.30;99.90;;;;;;4840553;29;20218;-82
2021/01/08 06:42:01;;;;;;;0.47;0.47;;;0.30;99.90;;;;;;4841352;29;20208;-82
2021/01/08 06:44:29;;;;;;;0.40;0.40;;;0.30;99.90;;;;;;4840614;29;20211;-82
2021/01/08 06:46:57;;;;;;;0.40;0.40;;;0.30;99.90;;;;;;4837970;29;20260;-82
2021/01/08 06:49:25;;;;;;;0.50;0.50;;;0.30;99.90;;;;;;4839912;29;20263;-83
2021/01/08 06:51:51;;;;;;;0.40;0.40;;;0.30;99.90;;;;;;4838461;29;20572;-89
2021/01/08 06:54:18;;;;;;;0.40;0.40;;;0.20;99.90;;;;;;4840173;29;20215;-83
2021/01/08 06:56:45;;;;;;;0.40;0.40;;;0.20;99.90;;;;;;4838331;29;20594;-84
2021/01/08 06:59:12;;;;;;;0.40;0.40;;;0.30;99.90;;;;;;4841583;29;20675;-82
2021/01/08 07:01:52;;;;;;;0.50;0.50;;;0.30;99.90;;;;;;4840747;29;20242;-84
2021/01/08 07:04:21;;;;;;;0.40;0.40;;;0.30;99.90;;;;;;4840717;29;20611;-83
2021/01/08 07:06:48;;;;;;;0.40;0.40;;;0.30;99.90;;;;;;4840302;29;20664;-85
2021/01/08 07:09:14;;;;;;;0.40;0.40;;;0.30;99.90;;;;;;4843352;29;20238;-88
2021/01/08 07:11:40;;;;;;;0.50;0.50;;;0.30;99.90;;;;;;4851532;29;20222;-86
2021/01/08 07:14:21;;;;;;;0.40;0.40;;;0.30;99.90;;;;;;4845395;29;20234;-86
2021/01/08 07:16:52;;;;;;;0.40;0.40;;;0.30;99.90;;;;;;4847622;29;20208;-87
2021/01/08 07:19:19;;;;;;;0.47;0.47;;;0.30;99.90;;;;;;4841640;29;20250;-85
2021/01/08 07:21:49;;;;;;;0.50;0.50;;;0.30;99.90;;;;;;4840338;29;20412;-84
2021/01/08 07:24:17;;;;;;;0.40;0.40;;;0.20;99.90;;;;;;4840343;29;20238;-83
2021/01/08 07:26:44;;;;;;;0.40;0.40;;;0.30;99.90;;;;;;4840436;29;20216;-85
2021/01/08 07:29:10;;;;;;;0.50;0.50;;;0.20;99.90;;;;;;4839948;29;20212;-87
2021/01/08 07:31:39;;;;;;;0.40;0.40;;;0.20;99.90;;;;;;4842270;29;20220;-82
2021/01/08 07:34:07;;;;;;;0.40;0.40;;;0.20;99.90;;;;;;4841978;29;20219;-84
2021/01/08 07:36:34;;;;;;;0.40;0.40;;;0.20;99.90;;;;;;4837750;29;20215;-86
2021/01/08 07:39:03;;;;;;;0.40;0.40;;;0.20;99.90;;;;;;4848435;29;20694;-87
2021/01/08 07:41:40;;;;;;;0.40;0.40;;;0.20;99.90;;;;;;4845592;29;20574;-85
2021/01/08 07:44:32;;;;;;;0.40;0.40;;;0.30;99.90;;;;;;4844423;29;20207;-85
2021/01/08 07:47:13;;;;;;;0.45;0.45;;;0.20;99.90;;;;;;4840896;29;20219;-86
2021/01/08 07:49:39;;;;;;;0.50;0.50;;;0.20;99.90;;;;;;4842568;29;20232;-86
2021/01/08 07:52:05;;;;;;;0.40;0.40;;;0.20;99.90;;;;;;4840077;29;20676;-83
2021/01/08 07:54:53;;;;;;;0.40;0.40;;;0.20;99.90;;;;;;4839034;29;20457;-81
2021/01/08 07:57:19;;;;;;;0.40;0.40;;;0.30;99.90;;;;;;4837012;29;20481;-80
2021/01/08 07:59:46;;;;;;;0.40;0.40;;;0.30;99.90;;;;;;4836141;29;20196;-78
2021/01/08 08:02:12;;;;;;;0.40;0.40;;;0.30;99.90;;;;;;4839498;29;20592;-81
2021/01/08 08:04:38;;;;;;;0.47;0.47;;;0.30;99.90;;;;;;4837782;29;20220;-84
2021/01/08 08:07:04;;;;;;;0.50;0.50;;;0.30;99.90;;;;;;4841263;29;20200;-83
2021/01/08 08:09:30;;;;;;;0.40;0.40;;;0.30;99.90;;;;;;4844746;29;20239;-84
2021/01/08 08:11:57;;;;;;;0.50;0.50;;;0.30;99.90;;;;;;4856711;29;20211;-86
2021/01/08 08:14:24;;;;;;;0.40;0.40;;;0.20;99.90;;;;;;4842899;29;20272;-80
2021/01/08 08:16:50;;;;;;;0.40;0.40;;;0.30;99.90;;;;;;4839884;29;20211;-83
2021/01/08 08:19:17;;;;;;;0.40;0.40;;;0.30;99.90;;;;;;4837515;29;20220;-78
2021/01/08 08:21:48;;;;;;;0.40;0.40;;;0.30;99.90;;;;;;4840201;29;20206;-81
2021/01/08 08:24:16;;;;;;;0.45;0.45;;;0.10;99.90;;;;;;4841150;29;20232;-82
2021/01/08 08:26:42;;;;;;;0.50;0.50;;;0.30;99.90;;;;;;4841372;29;20208;-84
2021/01/08 08:29:11;;;;;;;0.40;0.40;;;0.30;99.90;;;;;;4839329;29;20245;-84
2021/01/08 08:31:38;;;;;;;0.45;0.45;;;0.20;99.90;;;;;;4838952;29;20730;-84
2021/01/08 08:34:06;;;;;;;0.40;0.40;;;0.30;99.90;;;;;;4839229;29;20208;-83
2021/01/08 08:36:32;;;;;;;0.40;0.40;;;0.30;99.90;;;;;;4842425;29;20223;-84
2021/01/08 08:39:00;;;;;;;0.40;0.40;;;0.30;99.90;;;;;;4843158;29;20234;-88
2021/01/08 08:41:28;;;;;;;0.40;0.40;;;0.30;99.90;;;;;;4839703;29;20215;-85
2021/01/08 08:44:02;;;;;;;0.40;0.40;;;0.30;99.90;;;;;;4838490;29;20204;-86
2021/01/08 08:46:45;;;;;;;0.40;0.40;;;0.30;99.90;;;;;;4838799;29;20264;-87
2021/01/08 08:49:12;;;;;;;0.40;0.40;;;0.30;99.90;;;;;;4839618;29;20211;-87
2021/01/08 08:51:42;;;;;;;0.40;0.40;;;0.40;99.90;;;;;;4841871;29;20235;-86
2021/01/08 08:54:09;;;;;;;0.40;0.40;;;0.40;99.90;;;;;;4839121;29;20208;-87
2021/01/08 08:56:39;;;;;;;0.40;0.40;;;0.40;99.90;;;;;;4839094;29;20211;-88
2021/01/08 08:59:05;;;;;;;0.40;0.40;;;0.40;99.90;;;;;;4839096;29;20588;-88
2021/01/08 09:01:39;;;;;;;0.40;0.40;;;0.40;99.90;;;;;;4839282;29;20210;-86
2021/01/08 09:04:06;;;;;;;0.50;0.50;;;0.40;99.90;;;;;;4840834;29;20679;-87
2021/01/08 09:06:35;;;;;;;0.40;0.40;;;0.40;99.90;;;;;;4842890;29;20211;-87
2021/01/08 09:09:12;;;;;;;0.40;0.40;;;0.50;99.90;;;;;;4849991;29;20243;-87
2021/01/08 09:11:49;;;;;;;0.47;0.47;;;0.40;99.90;;;;;;4838405;29;20234;-86
2021/01/08 09:14:18;;;;;;;0.50;0.50;;;0.40;99.90;;;;;;4855831;29;20605;-86
2021/01/08 09:16:50;;;;;;;0.40;0.40;;;0.50;99.90;;;;;;4859517;29;20294;-87
2021/01/08 09:19:26;;;;;;;0.40;0.40;;;0.50;99.90;;;;;;4844308;29;20207;-88
2021/01/08 09:21:53;;;;;;;0.40;0.40;;;0.50;99.90;;;;;;4842857;29;20215;-84
2021/01/08 09:24:25;;;;;;;0.40;0.40;;;0.40;99.90;;;;;;4847133;29;20231;-86
2021/01/08 09:26:53;;;;;;;0.40;0.40;;;0.50;99.90;;;;;;4846011;29;20679;-86
2021/01/08 09:29:28;;;;;;;0.40;0.40;;;0.50;99.90;;;;;;4846589;29;20583;-86
2021/01/08 09:31:56;;;;;;;0.40;0.40;;;0.50;99.90;;;;;;4842571;29;20215;-91
2021/01/08 09:34:24;;;;;;;0.40;0.40;;;0.50;99.90;;;;;;4842411;29;20302;-80
2021/01/08 09:36:52;;;;;;;0.40;0.40;;;0.50;99.90;;;;;;4808876;29;20608;-80
2021/01/08 09:39:20;;;;;;;0.40;0.40;;;0.50;99.90;;;;;;4830383;29;20208;-80
2021/01/08 09:41:54;;;;;;;0.40;0.40;;;0.50;99.90;;;;;;4835113;29;20216;-84
2021/01/08 09:44:29;;;;;;;0.40;0.40;;;0.60;99.90;;;;;;4835605;29;20298;-84
2021/01/08 09:46:56;;;;;;;0.40;0.40;;;0.60;99.90;;;;;;4837989;29;20207;-83
2021/01/08 09:49:24;;;;;;;0.40;0.40;;;0.60;99.90;;;;;;4835169;29;20223;-84
2021/01/08 09:52:00;;;;;;;0.40;0.40;;;0.60;99.90;;;;;;4839579;29;20217;-86
2021/01/08 09:54:39;;;;;;;0.40;0.40;;;0.60;99.90;;;;;;4852332;29;20211;-85
2021/01/08 09:57:05;;;;;;;0.40;0.40;;;0.60;99.90;;;;;;4842158;29;20601;-83
2021/01/08 09:59:31;;;;;;;0.40;0.40;;;0.60;99.90;;;;;;4822921;29;20216;-83
2021/01/08 10:01:59;;;;;;;0.40;0.40;;;0.70;99.90;;;;;;4823063;29;20231;-83
2021/01/08 10:04:31;;;;;;;0.40;0.40;;;0.60;99.90;;;;;;4818835;29;20316;-83
2021/01/08 10:07:02;;;;;;;0.40;0.40;;;0.70;99.90;;;;;;4824718;29;20235;-82
2021/01/08 10:09:43;;;;;;;0.40;0.40;;;0.70;99.90;;;;;;4821744;29;20647;-84
2021/01/08 10:12:12;;;;;;;0.40;0.40;;;0.70;99.90;;;;;;4827992;29;20216;-81
2021/01/08 10:14:38;;;;;;;0.40;0.40;;;0.70;99.90;;;;;;4821344;29;20216;-82
2021/01/08 10:17:08;;;;;;;0.40;0.40;;;0.70;99.90;;;;;;4835658;29;20857;-82
2021/01/08 10:19:35;;;;;;;0.40;0.40;;;0.80;99.90;;;;;;4833708;29;20711;-82
2021/01/08 10:22:03;;;;;;;0.40;0.40;;;0.80;99.90;;;;;;4836639;29;20613;-82
2021/01/08 10:24:29;;;;;;;0.40;0.40;;;0.80;99.90;;;;;;4835877;29;20223;-84
2021/01/08 10:26:56;;;;;;;0.40;0.40;;;0.80;99.90;;;;;;4824405;29;20220;-82
2021/01/08 10:29:33;;;;;;;0.40;0.40;;;0.80;99.90;;;;;;4841096;29;20225;-90
2021/01/08 10:32:09;;;;;;;0.40;0.40;;;0.80;99.90;;;;;;4837592;29;20220;-84
2021/01/08 10:34:43;;;;;;;0.40;0.40;;;0.80;99.90;;;;;;4838354;29;20208;-86
2021/01/08 10:37:16;;;;;;;0.40;0.40;;;0.80;99.90;;;;;;4836403;29;20623;-80
2021/01/08 10:39:42;;;;;;;0.40;0.40;;;0.80;99.90;;;;;;4835687;29;20223;-83
2021/01/08 10:42:10;;;;;;;0.40;0.40;;;0.80;99.90;;;;;;4835712;29;20253;-85
2021/01/08 10:44:37;;;;;;;0.40;0.40;;;0.90;99.90;;;;;;4832276;29;20220;-84
2021/01/08 10:47:04;;;;;;;0.40;0.40;;;0.90;99.90;;;;;;4834792;29;20590;-85
2021/01/08 10:49:30;;;;;;;0.40;0.40;;;0.90;99.90;;;;;;4844121;29;20211;-85
2021/01/08 10:52:00;;;;;;;0.40;0.40;;;-0.30;99.90;;;;;;4841069;29;20295;-86
2021/01/08 10:54:26;;;;;;;0.45;0.45;;;0.90;99.90;;;;;;4836434;29;20207;-85
2021/01/08 10:56:52;;;;;;;0.43;0.43;;;1.00;99.90;;;;;;4835866;29;20275;-85
2021/01/08 10:59:18;;;;;;;0.40;0.40;;;1.00;99.90;;;;;;4833871;29;20209;-87
2021/01/08 11:01:47;;;;;;;0.40;0.40;;;1.00;99.90;;;;;;4838148;29;20578;-86
2021/01/08 11:04:13;;;;;;;0.40;0.40;;;1.00;99.90;;;;;;4841615;29;20207;-87
2021/01/08 11:06:39;;;;;;;0.40;0.40;;;0.90;99.90;;;;;;4836458;29;20304;-82
2021/01/08 11:09:10;;;;;;;0.40;0.40;;;0.90;99.90;;;;;;4834408;29;20357;-83
2021/01/08 11:11:36;;;;;;;0.40;0.40;;;1.00;99.90;;;;;;4834367;29;20228;-82
2021/01/08 11:14:02;;;;;;;0.40;0.40;;;0.90;99.90;;;;;;4829926;29;20220;-81
2021/01/08 11:16:28;;;;;;;0.40;0.40;;;1.00;99.90;;;;;;4833719;29;20243;-80
2021/01/08 11:18:54;;;;;;;0.40;0.40;;;1.00;99.90;;;;;;4834406;29;20738;-82
2021/01/08 11:21:21;;;;;;;0.40;0.40;;;;;;;;;;4832885;29;20720;-83
2021/01/08 11:23:48;;;;;;;0.40;0.40;;;1.00;99.90;;;;;;4835266;29;20282;-83
2021/01/08 11:26:23;;;;;;;0.40;0.40;;;1.00;99.90;;;;;;4828346;29;20504;-87
2021/01/08 11:28:50;;;;;;;0.45;0.45;;;0.90;99.90;;;;;;4832811;29;20725;-81
2021/01/08 11:31:17;;;;;;;0.40;0.40;;;0.90;99.90;;;;;;4830984;29;20707;-82
2021/01/08 11:33:43;;;;;;;0.40;0.40;;;0.90;99.90;;;;;;4830937;29;20231;-82
2021/01/08 11:36:09;;;;;;;0.40;0.40;;;0.80;99.90;;;;;;4833423;29;20509;-82
2021/01/08 11:38:36;;;;;;;0.40;0.40;;;0.90;99.90;;;;;;4836520;29;20479;-83
2021/01/08 11:41:02;;;;;;;0.40;0.40;;;0.90;99.90;;;;;;4836402;29;20613;-84
2021/01/08 11:43:29;;;;;;;0.40;0.40;;;0.90;99.90;;;;;;4836986;29;20216;-83
2021/01/08 11:45:55;;;;;;;0.40;0.40;;;0.90;99.90;;;;;;4837481;29;20842;-83
2021/01/08 11:48:22;;;;;;;0.40;0.40;;;0.80;99.90;;;;;;4837396;29;20247;-88
2021/01/08 11:50:48;;;;;;;0.40;0.40;;;0.90;99.90;;;;;;4835031;29;20227;-85
2021/01/08 11:53:14;;;;;;;0.40;0.40;;;0.90;99.90;;;;;;4835394;29;20224;-85
2021/01/08 11:55:40;;;;;;;0.40;0.40;;;0.90;99.90;;;;;;4833324;29;20228;-80
2021/01/08 11:58:06;;;;;;;0.40;0.40;;;0.90;99.90;;;;;;4836106;29;20204;-82
2021/01/08 12:00:33;;;;;;;0.40;0.40;;;0.90;99.90;;;;;;4797717;29;20689;-82
2021/01/08 12:02:59;;;;;;;0.40;0.40;;;0.90;99.90;;;;;;4830522;29;20238;-83
2021/01/08 12:05:25;;;;;;;0.45;0.45;;;0.90;99.90;;;;;;4828074;29;20212;-80
2021/01/08 12:07:51;;;;;;;0.40;0.40;;;0.90;99.90;;;;;;4830549;29;20256;-80
2021/01/08 12:10:17;;;;;;;0.50;0.50;;;0.90;99.90;;;;;;4831158;29;20248;-80
2021/01/08 12:12:47;;;;;;;0.40;0.40;;;0.90;99.90;;;;;;4831467;29;20211;-81
2021/01/08 12:15:14;;;;;;;0.40;0.40;;;0.90;99.90;;;;;;4832544;29;20239;-81
2021/01/08 12:17:42;;;;;;;0.40;0.40;;;0.90;99.90;;;;;;4839377;29;20655;-80
2021/01/08 12:20:10;;;;;;;0.40;0.40;;;0.90;99.90;;;;;;4835558;29;20216;-82
2021/01/08 12:22:36;;;;;;;0.40;0.40;;;0.90;99.90;;;;;;4832343;29;20303;-81
2021/01/08 12:25:02;;;;;;;0.40;0.40;;;0.90;99.90;;;;;;4835379;29;20218;-82
2021/01/08 12:27:28;;;;;;;0.40;0.40;;;0.90;99.90;;;;;;4833613;29;20217;-84
2021/01/08 12:29:55;;;;;;;0.40;0.40;;;0.90;99.90;;;;;;4833865;29;20207;-83
2021/01/08 12:32:21;;;;;;;0.40;0.40;;;;;;;;;;4831656;29;20208;-82
2021/01/08 12:34:48;;;;;;;0.40;0.40;;;0.90;99.90;;;;;;4832563;29;20211;-82
2021/01/08 12:37:14;;;;;;;0.40;0.40;;;0.80;99.90;;;;;;4835910;29;20244;-82
2021/01/08 12:39:41;;;;;;;0.47;0.47;;;0.80;99.90;;;;;;4834588;29;20218;-82
2021/01/08 12:42:07;;;;;;;0.50;0.50;;;0.80;99.90;;;;;;4833325;29;20289;-82
2021/01/08 12:44:33;;;;;;;0.40;0.40;;;0.80;99.90;;;;;;4834597;29;20254;-82
2021/01/08 12:47:00;;;;;;;0.40;0.40;;;0.80;99.90;;;;;;4834407;29;20211;-82
2021/01/08 12:49:27;;;;;;;0.40;0.40;;;0.80;99.90;;;;;;4842177;29;20203;-83
2021/01/08 12:51:54;;;;;;;0.40;0.40;;;0.80;99.90;;;;;;4828260;29;20237;-83
2021/01/08 12:54:20;;;;;;;0.40;0.40;;;0.80;99.90;;;;;;4833920;29;20272;-82
2021/01/08 12:56:47;;;;;;;0.43;0.43;;;0.80;99.90;;;;;;4835190;29;20215;-82
2021/01/08 12:59:13;;;;;;;0.40;0.40;;;0.80;99.90;;;;;;4833361;29;20222;-82
2021/01/08 13:01:39;;;;;;;0.40;0.40;;;0.80;99.90;;;;;;4833773;29;20212;-83
2021/01/08 13:04:05;;;;;;;0.40;0.40;;;0.80;99.90;;;;;;4834432;29;20676;-83
2021/01/08 13:06:31;;;;;;;0.40;0.40;;;0.80;99.90;;;;;;4833297;29;20646;-84
2021/01/08 13:08:58;;;;;;;0.40;0.40;;;0.80;99.90;;;;;;4834285;29;20239;-84
2021/01/08 13:11:24;;;;;;;0.40;0.40;;;0.80;99.90;;;;;;4831714;29;20274;-84
2021/01/08 13:13:51;;;;;;;0.40;0.40;;;0.80;99.90;;;;;;4831538;29;20242;-83
2021/01/08 13:16:19;;;;;;;0.50;0.50;;;0.80;99.90;;;;;;4833333;29;20690;-83
2021/01/08 13:18:45;;;;;;;0.40;0.40;;;0.80;99.90;;;;;;4834336;29;20207;-83
2021/01/08 13:21:11;;;;;;;0.40;0.40;;;0.80;99.90;;;;;;4833144;29;20260;-83
2021/01/08 13:23:37;;;;;;;0.40;0.40;;;0.80;99.90;;;;;;4833331;29;20800;-83